Terminal Aerodrome Forecast
Issued by NWS Corpus Christi, TX

Home | Current Version | Previous Version | Text Only | Print | Product List | Glossary On
Versions: 1 2 3 4 5 6 7 8 9 10 11 12 13 14 15 16 17 18 19
179
FTUS44 KCRP 270520
TAFCRP
TAF
KCRP 270520Z 2706/2806 VRB06KT P6SM SCT025 BKN250
      TEMPO 2709/2713 -SHRA BKN025
     FM271300 07009KT P6SM VCTS SCT025 BKN035CB
      TEMPO 2715/2719 P6SM -TSRA BKN035CB
     FM271900 09012KT P6SM VCTS SCT050CB OVC200 PROB30 2719/2723
      -TSRA BKN050CB
     FM280000 VRB04KT P6SM SCT025=

USA.gov is the U.S. government's official web portal to all federal, state and local government web resources and services.